createdAt,value
2022-08-22T00:00:52.588Z,31.38
2022-08-22T00:03:11.174Z,29.15
2022-08-22T00:03:11.262Z,36.22
2022-08-22T00:03:34.382Z,39.95
2022-08-22T00:06:13.038Z,27.85
2022-08-22T00:08:51.056Z,31.63
2022-08-22T00:11:29.822Z,33.47
2022-08-22T00:14:07.467Z,32.15
2022-08-22T00:16:47.977Z,34.78
2022-08-22T00:19:23.986Z,30.17
2022-08-22T00:21:59.837Z,27.50
2022-08-22T00:24:46.560Z,28.88
2022-08-22T00:27:19.379Z,33.58
2022-08-22T00:29:53.855Z,29.40
2022-08-22T00:32:30.484Z,35.92
2022-08-22T00:35:05.573Z,30.25
2022-08-22T00:37:40.953Z,37.70
2022-08-22T00:40:21.379Z,30.95
2022-08-22T00:43:14.390Z,30.30
2022-08-22T00:45:56.349Z,22.80
2022-08-22T00:49:01.145Z,24.20
2022-08-22T00:52:13.110Z,27.42
2022-08-22T00:54:56.842Z,28.83
2022-08-22T00:57:47.394Z,26.63
2022-08-22T01:00:21.767Z,24.02
2022-08-22T01:03:17.436Z,25.25
2022-08-22T01:05:58.067Z,26.98
2022-08-22T01:08:40.598Z,29.92
2022-08-22T01:11:28.284Z,29.30
2022-08-22T01:14:15.923Z,27.27
2022-08-22T01:17:09.718Z,32.13
2022-08-22T01:22:59.650Z,26.42
2022-08-22T01:25:58.256Z,32.53
2022-08-22T01:29:13.051Z,28.08
2022-08-22T01:32:12.205Z,25.75
2022-08-22T01:35:01.250Z,27.25
2022-08-22T01:38:15.430Z,28.65
2022-08-22T01:41:20.254Z,30.60
2022-08-22T01:44:10.147Z,25.73
2022-08-22T01:46:49.978Z,29.40
2022-08-22T01:49:23.804Z,29.42
2022-08-22T01:52:00.362Z,31.58
2022-08-22T01:54:38.618Z,26.83
2022-08-22T01:57:10.983Z,27.00
2022-08-22T01:59:44.067Z,25.83
2022-08-22T02:02:29.654Z,30.25
2022-08-22T02:05:05.120Z,25.20
2022-08-22T02:07:47.320Z,16.38
2022-08-22T02:10:23.048Z,22.52
2022-08-22T02:13:03.614Z,24.30
2022-08-22T02:15:50.650Z,25.95
2022-08-22T02:18:27.661Z,22.00
2022-08-22T02:21:06.301Z,30.20
2022-08-22T02:23:49.094Z,21.20
2022-08-22T02:26:22.831Z,26.73
2022-08-22T02:28:58.975Z,22.38
2022-08-22T02:31:40.415Z,17.60
2022-08-22T02:34:32.130Z,23.42
2022-08-22T02:37:09.670Z,23.55
2022-08-22T02:39:47.515Z,19.80
2022-08-22T02:42:22.706Z,24.73
2022-08-22T02:44:59.279Z,26.92
2022-08-22T02:47:34.726Z,17.98
2022-08-22T02:50:19.546Z,19.50
2022-08-22T02:53:02.509Z,18.63
2022-08-22T02:55:41.080Z,23.33
2022-08-22T02:58:19.276Z,26.88
2022-08-22T03:00:52.140Z,22.67
2022-08-22T03:03:24.104Z,18.95
2022-08-22T03:06:01.666Z,16.48
2022-08-22T03:08:35.650Z,23.45
2022-08-22T03:11:19.262Z,19.63
2022-08-22T03:16:29.783Z,15.95
2022-08-22T03:19:05.755Z,17.25
2022-08-22T03:21:42.559Z,20.33
2022-08-22T03:24:16.826Z,17.15
2022-08-22T03:26:53.423Z,19.02
2022-08-22T03:29:27.749Z,19.98
2022-08-22T03:32:13.141Z,29.20
2022-08-22T03:35:00.442Z,21.15
2022-08-22T03:37:40.545Z,19.70
2022-08-22T03:40:23.988Z,24.40
2022-08-22T03:43:30.031Z,17.60
2022-08-22T03:46:28.678Z,18.42
2022-08-22T03:49:09.631Z,20.42
2022-08-22T03:51:54.982Z,17.55
2022-08-22T03:55:05.226Z,22.13
2022-08-22T03:58:15.857Z,18.85
2022-08-22T04:01:28.696Z,24.38
2022-08-22T04:04:53.039Z,18.65
2022-08-22T04:08:02.966Z,15.77
2022-08-22T04:10:52.475Z,16.30
2022-08-22T04:13:49.754Z,22.63
2022-08-22T04:16:51.077Z,16.88
2022-08-22T04:19:38.841Z,20.38
2022-08-22T04:22:23.890Z,23.20
2022-08-22T04:25:00.600Z,17.77
2022-08-22T04:27:35.102Z,18.98
2022-08-22T04:30:09.522Z,18.40
2022-08-22T04:32:46.222Z,16.10
2022-08-22T04:35:27.427Z,18.63
2022-08-22T04:38:00.559Z,17.95
2022-08-22T04:40:38.019Z,15.68
2022-08-22T04:43:13.536Z,30.65
2022-08-22T04:45:49.302Z,20.33
2022-08-22T04:48:35.728Z,18.65
2022-08-22T04:51:12.957Z,16.63
2022-08-22T04:54:18.180Z,24.38
2022-08-22T04:57:04.763Z,16.08
2022-08-22T04:59:34.918Z,19.20
2022-08-22T05:02:12.205Z,18.23
2022-08-22T05:04:52.723Z,19.65
2022-08-22T05:07:32.376Z,17.65
2022-08-22T05:10:12.509Z,14.90
2022-08-22T05:12:46.504Z,14.07
2022-08-22T05:15:23.080Z,21.17
2022-08-22T05:17:58.161Z,18.00
2022-08-22T05:20:31.270Z,13.18
2022-08-22T05:23:06.127Z,18.38
2022-08-22T05:25:48.301Z,14.65
2022-08-22T05:28:35.367Z,20.88
2022-08-22T05:31:09.401Z,14.10
2022-08-22T05:33:43.269Z,22.73
2022-08-22T05:36:20.676Z,20.17
2022-08-22T05:39:00.679Z,18.05
2022-08-22T05:41:34.301Z,18.75
2022-08-22T05:44:25.593Z,18.20
2022-08-22T05:47:02.149Z,16.60
2022-08-22T05:49:38.977Z,15.68
2022-08-22T05:52:19.250Z,18.42
2022-08-22T05:54:57.251Z,24.88
2022-08-22T05:57:31.642Z,14.43
2022-08-22T06:00:06.683Z,21.33
2022-08-22T06:02:52.717Z,20.98
2022-08-22T06:05:28.479Z,16.20
2022-08-22T06:08:07.146Z,15.55
2022-08-22T06:10:48.111Z,17.42
2022-08-22T06:13:28.161Z,15.10
2022-08-22T06:16:09.456Z,13.85
2022-08-22T06:18:41.591Z,16.90
2022-08-22T06:21:14.377Z,18.45
2022-08-22T06:23:49.431Z,24.20
2022-08-22T06:26:22.968Z,19.17
2022-08-22T06:28:55.938Z,18.17
2022-08-22T06:31:30.417Z,16.55
2022-08-22T06:34:10.066Z,18.58
2022-08-22T06:36:42.345Z,16.95
2022-08-22T06:39:19.958Z,24.23
2022-08-22T06:41:53.883Z,13.23
2022-08-22T06:44:28.729Z,32.55
2022-08-22T06:47:01.320Z,13.88
2022-08-22T06:49:33.823Z,25.45
2022-08-22T06:52:08.551Z,14.98
2022-08-22T06:54:45.592Z,18.80
2022-08-22T06:57:30.452Z,18.40
2022-08-22T07:00:02.883Z,18.73
2022-08-22T07:02:37.510Z,18.47
2022-08-22T07:05:10.612Z,18.90
2022-08-22T07:07:42.130Z,11.88
2022-08-22T07:10:15.942Z,18.23
2022-08-22T07:12:47.687Z,19.05
2022-08-22T07:15:22.938Z,20.02
2022-08-22T07:17:55.004Z,23.40
2022-08-22T07:20:28.087Z,15.52
2022-08-22T07:25:32.986Z,18.50
2022-08-22T07:28:16.241Z,13.80
2022-08-22T07:30:56.464Z,11.40
2022-08-22T07:33:44.342Z,14.60
2022-08-22T07:36:29.564Z,15.02
2022-08-22T07:39:19.317Z,15.27
2022-08-22T07:42:07.023Z,17.13
2022-08-22T07:44:48.138Z,20.30
2022-08-22T07:47:21.855Z,22.58
2022-08-22T07:50:00.122Z,12.35
2022-08-22T07:52:39.384Z,15.30
2022-08-22T07:55:18.218Z,11.88
2022-08-22T07:57:54.927Z,12.82
2022-08-22T08:00:25.213Z,15.80
2022-08-22T08:03:00.435Z,12.27
2022-08-22T08:05:32.553Z,15.88
2022-08-22T08:08:05.946Z,16.27
2022-08-22T08:10:41.190Z,15.63
2022-08-22T08:13:15.714Z,19.02
2022-08-22T08:15:46.063Z,12.13
2022-08-22T08:18:22.019Z,12.60
2022-08-22T08:20:53.240Z,17.42
2022-08-22T08:23:24.163Z,19.15
2022-08-22T08:25:58.886Z,14.50
2022-08-22T08:28:34.805Z,19.23
2022-08-22T08:31:09.754Z,13.80
2022-08-22T08:33:42.155Z,20.27
2022-08-22T08:36:27.239Z,13.52
2022-08-22T08:39:04.065Z,23.40
2022-08-22T08:41:50.320Z,20.75
2022-08-22T08:44:37.382Z,15.30
2022-08-22T08:47:21.174Z,15.15
2022-08-22T08:50:17.180Z,19.38
2022-08-22T08:53:17.894Z,15.18
2022-08-22T08:55:52.679Z,15.88
2022-08-22T08:58:34.327Z,18.92
2022-08-22T09:01:19.481Z,22.38
2022-08-22T09:04:39.154Z,17.58
2022-08-22T09:07:37.192Z,10.00
2022-08-22T09:10:31.699Z,21.33
2022-08-22T09:13:22.375Z,17.23
2022-08-22T09:16:06.739Z,16.13
2022-08-22T09:19:04.285Z,20.42
2022-08-22T09:22:14.492Z,21.85
2022-08-22T09:25:17.313Z,28.67
2022-08-22T09:27:54.305Z,14.83
2022-08-22T09:30:31.422Z,15.73
2022-08-22T09:33:07.290Z,18.58
2022-08-22T09:35:46.543Z,16.98
2022-08-22T09:38:34.581Z,20.23
2022-08-22T09:41:15.056Z,26.30
2022-08-22T09:43:49.467Z,22.88
2022-08-22T09:46:22.368Z,22.73
2022-08-22T09:49:07.260Z,14.63
2022-08-22T09:51:43.304Z,27.25
2022-08-22T09:54:31.658Z,24.92
2022-08-22T09:57:15.141Z,29.20
2022-08-22T10:02:36.438Z,23.98
2022-08-22T10:05:41.158Z,37.20
2022-08-22T10:08:19.808Z,21.10
2022-08-22T10:11:06.677Z,26.02
2022-08-22T10:13:48.185Z,26.52
2022-08-22T10:16:40.627Z,31.58
2022-08-22T10:19:18.078Z,20.10
2022-08-22T10:22:19.920Z,26.60
2022-08-22T10:25:08.274Z,23.67
2022-08-22T10:27:57.179Z,33.03
2022-08-22T10:30:31.397Z,28.40
2022-08-22T10:33:05.764Z,34.15
2022-08-22T10:35:40.713Z,41.53
2022-08-22T10:38:16.660Z,30.38
2022-08-22T10:40:54.713Z,35.45
2022-08-22T10:43:34.540Z,34.17
2022-08-22T10:46:12.473Z,34.97
2022-08-22T10:48:48.481Z,58.53
2022-08-22T10:51:25.611Z,39.17
2022-08-22T10:54:10.035Z,25.42
2022-08-22T10:56:44.882Z,36.60
2022-08-22T10:59:29.835Z,39.65
2022-08-22T11:02:09.004Z,48.05
2022-08-22T11:04:57.711Z,51.97
2022-08-22T11:07:48.925Z,52.15
2022-08-22T11:10:29.798Z,47.03
2022-08-22T11:13:12.892Z,47.28
2022-08-22T11:15:58.229Z,71.30
2022-08-22T11:18:37.691Z,54.00
2022-08-22T11:21:11.721Z,44.72
2022-08-22T11:23:46.734Z,52.47
2022-08-22T11:26:35.772Z,46.17
2022-08-22T11:29:41.203Z,50.08
2022-08-22T11:32:18.968Z,47.78
2022-08-22T11:34:58.686Z,48.30
2022-08-22T11:37:46.052Z,53.67
2022-08-22T11:40:26.361Z,38.92
2022-08-22T11:43:18.237Z,48.97
2022-08-22T11:45:52.687Z,54.83
2022-08-22T11:48:26.545Z,54.55
2022-08-22T11:51:15.213Z,51.30
2022-08-22T11:53:48.551Z,51.72
2022-08-22T11:56:31.498Z,52.08
2022-08-22T11:59:03.879Z,56.75
2022-08-22T12:01:42.632Z,54.15
2022-08-22T12:04:16.594Z,40.90
2022-08-22T12:07:11.171Z,55.65
2022-08-22T12:09:52.164Z,66.57
2022-08-22T12:12:51.624Z,64.07
2022-08-22T12:15:25.841Z,63.83
2022-08-22T12:18:35.433Z,63.75
2022-08-22T12:21:36.784Z,68.85
2022-08-22T12:24:37.035Z,67.47
2022-08-22T12:27:28.055Z,64.18
2022-08-22T12:30:20.347Z,60.50
2022-08-22T12:33:23.158Z,78.03
2022-08-22T12:36:05.049Z,76.85
2022-08-22T12:38:51.004Z,68.78
2022-08-22T12:41:40.186Z,72.82
2022-08-22T12:44:37.828Z,69.57
2022-08-22T12:47:26.835Z,67.15
2022-08-22T12:50:31.549Z,65.13
2022-08-22T12:53:26.671Z,67.65
2022-08-22T12:56:14.564Z,66.43
2022-08-22T12:59:04.586Z,75.28
2022-08-22T13:01:39.214Z,74.65
2022-08-22T13:04:19.350Z,71.55
2022-08-22T13:07:17.781Z,59.22
2022-08-22T13:09:52.262Z,67.60
2022-08-22T13:12:29.996Z,62.92
2022-08-22T13:15:02.594Z,64.53
2022-08-22T13:17:32.177Z,57.60
2022-08-22T13:20:10.917Z,61.35
2022-08-22T13:22:45.626Z,60.38
2022-08-22T13:25:26.574Z,58.08
2022-08-22T13:27:59.209Z,49.13
2022-08-22T13:30:33.547Z,64.05
2022-08-22T13:33:09.564Z,63.30
2022-08-22T13:35:51.752Z,37.03
2022-08-22T13:38:26.678Z,61.75
2022-08-22T13:40:59.073Z,49.13
2022-08-22T13:43:31.237Z,55.85
2022-08-22T13:46:02.967Z,57.85
2022-08-22T13:48:49.605Z,66.70
2022-08-22T13:51:26.194Z,47.72
2022-08-22T13:54:02.794Z,51.90
2022-08-22T13:56:50.469Z,51.83
2022-08-22T13:59:49.761Z,51.95
2022-08-22T14:02:34.367Z,44.72
2022-08-22T14:05:09.982Z,48.05
2022-08-22T14:07:50.090Z,47.78
2022-08-22T14:10:26.688Z,42.60
2022-08-22T14:13:34.944Z,43.63
2022-08-22T14:16:11.047Z,45.40
2022-08-22T14:18:50.692Z,49.90
2022-08-22T14:21:33.417Z,36.67
2022-08-22T14:24:17.275Z,39.45
2022-08-22T14:26:55.018Z,49.03
2022-08-22T14:29:31.844Z,47.03
2022-08-22T14:32:08.914Z,40.42
2022-08-22T14:34:42.225Z,37.30
2022-08-22T14:37:19.479Z,41.40
2022-08-22T14:39:55.719Z,44.90
2022-08-22T14:42:28.252Z,37.38
2022-08-22T14:45:06.857Z,34.50
2022-08-22T14:47:55.390Z,51.70
2022-08-22T14:50:43.910Z,41.65
2022-08-22T14:53:25.383Z,43.17
2022-08-22T14:56:01.285Z,44.15
2022-08-22T14:58:34.569Z,40.58
2022-08-22T15:01:11.452Z,40.70
2022-08-22T15:03:42.736Z,36.95
2022-08-22T15:06:14.538Z,37.30
2022-08-22T15:11:27.363Z,52.63
2022-08-22T15:14:04.147Z,50.00
2022-08-22T15:16:36.888Z,37.88
2022-08-22T15:19:27.203Z,46.80
2022-08-22T15:22:11.366Z,39.53
2022-08-22T15:24:46.004Z,50.40
2022-08-22T15:27:20.073Z,39.35
2022-08-22T15:29:52.737Z,39.05
2022-08-22T15:32:24.154Z,36.80
2022-08-22T15:35:07.578Z,37.28
2022-08-22T15:37:55.623Z,41.15
2022-08-22T15:40:36.479Z,36.67
2022-08-22T15:43:21.769Z,45.25
2022-08-22T15:45:54.832Z,40.65
2022-08-22T15:48:31.084Z,41.80
2022-08-22T15:51:04.832Z,41.65
2022-08-22T15:54:16.438Z,37.25
2022-08-22T15:57:16.537Z,49.72
2022-08-22T15:59:54.809Z,40.30
2022-08-22T16:02:35.454Z,34.55
2022-08-22T16:05:24.540Z,39.25
2022-08-22T16:08:03.915Z,45.05
2022-08-22T16:10:38.914Z,38.90
2022-08-22T16:13:14.850Z,32.28
2022-08-22T16:15:57.128Z,34.45
2022-08-22T16:19:03.605Z,46.85
2022-08-22T16:22:18.186Z,36.65
2022-08-22T16:25:05.806Z,47.63
2022-08-22T16:27:35.220Z,38.45
2022-08-22T16:30:15.069Z,40.80
2022-08-22T16:32:56.585Z,39.83
2022-08-22T16:36:02.903Z,42.13
2022-08-22T16:38:41.713Z,42.35
2022-08-22T16:41:36.794Z,54.03
2022-08-22T16:44:41.487Z,39.40
2022-08-22T16:47:16.692Z,41.20
2022-08-22T16:50:00.314Z,45.63
2022-08-22T16:53:07.983Z,39.08
2022-08-22T16:56:14.444Z,47.75
2022-08-22T16:59:14.224Z,39.22
2022-08-22T17:02:12.630Z,38.03
2022-08-22T17:04:52.986Z,36.72
2022-08-22T17:07:34.474Z,53.83
2022-08-22T17:10:28.216Z,50.20
2022-08-22T17:13:20.137Z,42.03
2022-08-22T17:16:04.364Z,36.25
2022-08-22T17:18:48.634Z,38.10
2022-08-22T17:21:26.112Z,36.80
2022-08-22T17:24:04.488Z,33.30
2022-08-22T17:26:48.499Z,46.22
2022-08-22T17:29:28.842Z,39.38
2022-08-22T17:32:06.901Z,36.83
2022-08-22T17:34:40.437Z,37.92
2022-08-22T17:37:18.154Z,41.95
2022-08-22T17:39:59.902Z,36.83
2022-08-22T17:42:44.395Z,35.58
2022-08-22T17:45:27.091Z,35.30
2022-08-22T17:50:41.318Z,42.53
2022-08-22T17:53:16.232Z,39.25
2022-08-22T17:56:01.421Z,60.78
2022-08-22T17:58:43.527Z,134.85
2022-08-22T18:01:16.184Z,74.47
2022-08-22T18:03:53.539Z,42.08
2022-08-22T18:06:26.658Z,149.15
2022-08-22T18:09:15.194Z,38.17
2022-08-22T18:11:49.602Z,42.33
2022-08-22T18:14:30.491Z,46.53
2022-08-22T18:17:01.093Z,35.47
2022-08-22T18:19:43.369Z,51.70
2022-08-22T18:22:20.314Z,42.92
2022-08-22T18:24:55.681Z,47.78
2022-08-22T18:27:35.415Z,40.55
2022-08-22T18:30:16.838Z,46.10
2022-08-22T18:32:55.327Z,39.50
2022-08-22T18:35:30.056Z,51.03
2022-08-22T18:38:18.299Z,39.83
2022-08-22T18:40:54.362Z,46.47
2022-08-22T18:43:36.495Z,48.80
2022-08-22T18:46:31.819Z,44.58
2022-08-22T18:49:15.547Z,45.72
2022-08-22T18:52:14.659Z,35.10
2022-08-22T18:55:01.349Z,54.63
2022-08-22T18:57:45.970Z,43.70
2022-08-22T19:00:18.875Z,49.75
2022-08-22T19:03:21.004Z,45.80
2022-08-22T19:06:17.243Z,40.03
2022-08-22T19:09:39.203Z,33.83
2022-08-22T19:12:25.409Z,37.22
2022-08-22T19:15:15.998Z,47.30
2022-08-22T19:18:15.834Z,39.95
2022-08-22T19:21:02.779Z,47.83
2022-08-22T19:23:50.615Z,43.60
2022-08-22T19:26:38.136Z,44.83
2022-08-22T19:29:47.179Z,49.67
2022-08-22T19:32:50.123Z,48.58
2022-08-22T19:35:25.929Z,46.70
2022-08-22T19:37:57.386Z,37.53
2022-08-22T19:40:53.485Z,44.92
2022-08-22T19:43:32.159Z,54.60
2022-08-22T19:46:05.884Z,48.97
2022-08-22T19:48:45.646Z,45.85
2022-08-22T19:51:25.971Z,34.67
2022-08-22T19:54:18.589Z,38.65
2022-08-22T19:57:02.969Z,39.85
2022-08-22T19:59:50.393Z,46.28
2022-08-22T20:02:35.786Z,43.28
2022-08-22T20:05:24.291Z,40.42
2022-08-22T20:08:06.487Z,40.63
2022-08-22T20:10:49.710Z,48.10
2022-08-22T20:13:23.906Z,38.97
2022-08-22T20:16:07.510Z,44.60
2022-08-22T20:19:07.781Z,33.72
2022-08-22T20:21:56.943Z,38.35
2022-08-22T20:24:34.491Z,34.10
2022-08-22T20:27:14.794Z,41.05
2022-08-22T20:29:49.618Z,39.53
2022-08-22T20:32:21.283Z,30.83
2022-08-22T20:34:57.023Z,41.65
2022-08-22T20:38:05.945Z,38.50
2022-08-22T20:43:18.583Z,34.30
2022-08-22T20:45:59.765Z,46.23
2022-08-22T20:48:37.571Z,44.90
2022-08-22T20:51:09.437Z,34.15
2022-08-22T20:53:38.303Z,40.97
2022-08-22T20:56:08.247Z,27.40
2022-08-22T20:58:40.395Z,35.53
2022-08-22T21:01:13.479Z,32.30
2022-08-22T21:06:17.046Z,34.20
2022-08-22T21:09:08.921Z,31.60
2022-08-22T21:11:42.863Z,38.25
2022-08-22T21:14:21.808Z,37.60
2022-08-22T21:16:51.574Z,48.35
2022-08-22T21:19:25.291Z,36.60
2022-08-22T21:21:56.211Z,30.65
2022-08-22T21:24:25.194Z,30.08
2022-08-22T21:26:58.678Z,38.55
2022-08-22T21:29:32.844Z,39.40
2022-08-22T21:32:12.634Z,31.10
2022-08-22T21:34:44.441Z,30.67
2022-08-22T21:37:17.904Z,30.45
2022-08-22T21:39:50.953Z,41.85
2022-08-22T21:42:25.666Z,32.75
2022-08-22T21:44:59.098Z,28.42
2022-08-22T21:47:32.151Z,39.00
2022-08-22T21:50:05.085Z,28.17
2022-08-22T21:52:37.444Z,33.25
2022-08-22T21:55:17.931Z,38.58
2022-08-22T21:57:46.764Z,31.30
2022-08-22T22:00:40.961Z,31.50
2022-08-22T22:03:19.908Z,25.05
2022-08-22T22:05:50.891Z,26.02
2022-08-22T22:08:21.037Z,33.63
2022-08-22T22:10:51.047Z,30.63
2022-08-22T22:13:23.880Z,31.08
2022-08-22T22:15:56.304Z,29.58
2022-08-22T22:18:26.896Z,34.67
2022-08-22T22:20:56.416Z,23.35
2022-08-22T22:23:27.623Z,35.70
2022-08-22T22:25:58.356Z,30.60
2022-08-22T22:28:32.050Z,26.77
2022-08-22T22:31:00.871Z,24.90
2022-08-22T22:33:32.139Z,24.02
2022-08-22T22:36:05.043Z,26.83
2022-08-22T22:38:35.435Z,37.88
2022-08-22T22:41:04.294Z,29.10
2022-08-22T22:43:33.603Z,25.38
2022-08-22T22:46:02.725Z,28.70
2022-08-22T22:48:31.578Z,26.65
2022-08-22T22:51:00.616Z,23.90
2022-08-22T22:53:38.636Z,26.83
2022-08-22T22:56:13.818Z,21.02
2022-08-22T22:58:43.303Z,22.70
2022-08-22T23:01:15.412Z,23.08
2022-08-22T23:03:44.696Z,22.17
2022-08-22T23:06:14.738Z,23.92
2022-08-22T23:08:44.129Z,25.13
2022-08-22T23:11:16.994Z,25.63
2022-08-22T23:13:48.213Z,20.77
2022-08-22T23:16:19.608Z,25.40
2022-08-22T23:18:48.919Z,21.30
2022-08-22T23:21:20.000Z,22.30
2022-08-22T23:23:50.323Z,24.42
2022-08-22T23:26:20.448Z,23.35
2022-08-22T23:28:49.279Z,29.30
2022-08-22T23:31:27.492Z,20.95
2022-08-22T23:33:57.339Z,20.38
2022-08-22T23:36:26.123Z,25.13
2022-08-22T23:38:55.040Z,24.63
2022-08-22T23:41:25.187Z,21.63
2022-08-22T23:43:56.037Z,20.13
2022-08-22T23:46:26.617Z,20.63
2022-08-22T23:48:55.603Z,21.73
2022-08-22T23:51:26.185Z,16.63
2022-08-22T23:53:56.416Z,20.70
2022-08-22T23:56:30.312Z,20.58
2022-08-22T23:58:59.858Z,22.88
